sensor_id;sensor_type;location;lat;lon;timestamp;P1;durP1;ratioP1;P2;durP2;ratioP2
9106;SDS011;4589;48.690;8.952;2023-01-30T00:00:23;19.70;;;10.80;;
9106;SDS011;4589;48.690;8.952;2023-01-30T00:02:49;20.00;;;11.00;;
9106;SDS011;4589;48.690;8.952;2023-01-30T00:05:15;20.47;;;10.70;;
9106;SDS011;4589;48.690;8.952;2023-01-30T00:07:41;24.20;;;13.47;;
9106;SDS011;4589;48.690;8.952;2023-01-30T00:10:07;21.20;;;13.27;;
9106;SDS011;4589;48.690;8.952;2023-01-30T00:12:34;23.70;;;13.23;;
9106;SDS011;4589;48.690;8.952;2023-01-30T00:15:00;23.23;;;11.53;;
9106;SDS011;4589;48.690;8.952;2023-01-30T00:17:25;24.07;;;12.70;;
9106;SDS011;4589;48.690;8.952;2023-01-30T00:19:51;18.00;;;11.43;;
9106;SDS011;4589;48.690;8.952;2023-01-30T00:22:17;20.90;;;11.83;;
9106;SDS011;4589;48.690;8.952;2023-01-30T00:24:43;18.37;;;10.73;;
9106;SDS011;4589;48.690;8.952;2023-01-30T00:27:09;19.83;;;11.13;;
9106;SDS011;4589;48.690;8.952;2023-01-30T00:29:35;20.27;;;12.77;;
9106;SDS011;4589;48.690;8.952;2023-01-30T00:32:01;20.60;;;11.90;;
9106;SDS011;4589;48.690;8.952;2023-01-30T00:34:27;20.97;;;12.87;;
9106;SDS011;4589;48.690;8.952;2023-01-30T00:36:53;21.57;;;10.83;;
9106;SDS011;4589;48.690;8.952;2023-01-30T00:39:18;17.57;;;11.03;;
9106;SDS011;4589;48.690;8.952;2023-01-30T00:41:44;24.33;;;10.57;;
9106;SDS011;4589;48.690;8.952;2023-01-30T00:44:28;20.63;;;12.07;;
9106;SDS011;4589;48.690;8.952;2023-01-30T00:47:13;17.05;;;11.00;;
9106;SDS011;4589;48.690;8.952;2023-01-30T00:49:38;21.60;;;12.23;;
9106;SDS011;4589;48.690;8.952;2023-01-30T00:52:06;16.77;;;10.95;;
9106;SDS011;4589;48.690;8.952;2023-01-30T00:54:32;24.88;;;13.55;;
9106;SDS011;4589;48.690;8.952;2023-01-30T00:56:58;20.85;;;11.82;;
9106;SDS011;4589;48.690;8.952;2023-01-30T00:59:25;20.67;;;11.10;;
9106;SDS011;4589;48.690;8.952;2023-01-30T01:01:50;20.27;;;11.15;;
9106;SDS011;4589;48.690;8.952;2023-01-30T01:04:16;21.40;;;12.20;;
9106;SDS011;4589;48.690;8.952;2023-01-30T01:06:42;19.58;;;11.52;;
9106;SDS011;4589;48.690;8.952;2023-01-30T01:09:08;24.80;;;13.60;;
9106;SDS011;4589;48.690;8.952;2023-01-30T01:11:35;16.60;;;9.30;;
9106;SDS011;4589;48.690;8.952;2023-01-30T01:14:01;18.33;;;11.98;;
9106;SDS011;4589;48.690;8.952;2023-01-30T01:16:28;21.58;;;11.32;;
9106;SDS011;4589;48.690;8.952;2023-01-30T01:18:54;19.40;;;11.90;;
9106;SDS011;4589;48.690;8.952;2023-01-30T01:21:21;23.40;;;11.90;;
9106;SDS011;4589;48.690;8.952;2023-01-30T01:23:50;22.60;;;12.02;;
9106;SDS011;4589;48.690;8.952;2023-01-30T01:26:17;20.52;;;11.32;;
9106;SDS011;4589;48.690;8.952;2023-01-30T01:28:43;22.38;;;12.35;;
9106;SDS011;4589;48.690;8.952;2023-01-30T01:31:09;16.70;;;10.93;;
9106;SDS011;4589;48.690;8.952;2023-01-30T01:33:36;24.88;;;13.63;;
9106;SDS011;4589;48.690;8.952;2023-01-30T01:36:02;18.45;;;10.15;;
9106;SDS011;4589;48.690;8.952;2023-01-30T01:38:28;24.05;;;12.05;;
9106;SDS011;4589;48.690;8.952;2023-01-30T01:40:54;20.67;;;11.75;;
9106;SDS011;4589;48.690;8.952;2023-01-30T01:43:26;21.77;;;12.25;;
9106;SDS011;4589;48.690;8.952;2023-01-30T01:46:07;18.98;;;12.18;;
9106;SDS011;4589;48.690;8.952;2023-01-30T01:48:37;17.45;;;11.30;;
9106;SDS011;4589;48.690;8.952;2023-01-30T01:51:50;24.48;;;12.05;;
9106;SDS011;4589;48.690;8.952;2023-01-30T01:56:30;21.85;;;13.23;;
9106;SDS011;4589;48.690;8.952;2023-01-30T01:59:00;20.17;;;11.82;;
9106;SDS011;4589;48.690;8.952;2023-01-30T02:01:29;23.13;;;11.43;;
9106;SDS011;4589;48.690;8.952;2023-01-30T02:03:55;22.23;;;10.55;;
9106;SDS011;4589;48.690;8.952;2023-01-30T02:06:25;22.33;;;13.07;;
9106;SDS011;4589;48.690;8.952;2023-01-30T02:08:52;19.27;;;12.30;;
9106;SDS011;4589;48.690;8.952;2023-01-30T02:11:32;20.00;;;11.68;;
9106;SDS011;4589;48.690;8.952;2023-01-30T02:13:59;22.10;;;10.48;;
9106;SDS011;4589;48.690;8.952;2023-01-30T02:16:26;23.20;;;12.05;;
9106;SDS011;4589;48.690;8.952;2023-01-30T02:18:51;25.30;;;13.00;;
9106;SDS011;4589;48.690;8.952;2023-01-30T02:21:29;18.05;;;11.40;;
9106;SDS011;4589;48.690;8.952;2023-01-30T02:26:38;21.25;;;11.73;;
9106;SDS011;4589;48.690;8.952;2023-01-30T02:31:49;24.00;;;11.65;;
9106;SDS011;4589;48.690;8.952;2023-01-30T02:40:03;18.27;;;11.23;;
9106;SDS011;4589;48.690;8.952;2023-01-30T02:46:08;21.75;;;11.70;;
9106;SDS011;4589;48.690;8.952;2023-01-30T02:48:41;21.52;;;12.10;;
9106;SDS011;4589;48.690;8.952;2023-01-30T02:51:10;27.15;;;12.27;;
9106;SDS011;4589;48.690;8.952;2023-01-30T02:53:38;20.65;;;12.50;;
9106;SDS011;4589;48.690;8.952;2023-01-30T02:56:04;21.17;;;12.50;;
9106;SDS011;4589;48.690;8.952;2023-01-30T02:58:33;21.52;;;12.55;;
9106;SDS011;4589;48.690;8.952;2023-01-30T03:01:26;28.42;;;11.88;;
9106;SDS011;4589;48.690;8.952;2023-01-30T03:06:41;28.25;;;13.07;;
9106;SDS011;4589;48.690;8.952;2023-01-30T03:09:17;23.33;;;11.73;;
9106;SDS011;4589;48.690;8.952;2023-01-30T03:11:52;22.30;;;13.05;;
9106;SDS011;4589;48.690;8.952;2023-01-30T03:14:29;27.83;;;13.27;;
9106;SDS011;4589;48.690;8.952;2023-01-30T03:16:57;24.13;;;12.25;;
9106;SDS011;4589;48.690;8.952;2023-01-30T03:19:24;26.30;;;13.70;;
9106;SDS011;4589;48.690;8.952;2023-01-30T03:21:51;24.48;;;12.63;;
9106;SDS011;4589;48.690;8.952;2023-01-30T03:24:17;23.70;;;12.90;;
9106;SDS011;4589;48.690;8.952;2023-01-30T03:26:45;17.98;;;11.65;;
9106;SDS011;4589;48.690;8.952;2023-01-30T03:29:38;27.30;;;11.40;;
9106;SDS011;4589;48.690;8.952;2023-01-30T03:32:05;20.50;;;12.27;;
9106;SDS011;4589;48.690;8.952;2023-01-30T03:34:31;22.42;;;13.30;;
9106;SDS011;4589;48.690;8.952;2023-01-30T03:36:56;28.47;;;13.50;;
9106;SDS011;4589;48.690;8.952;2023-01-30T03:39:23;19.75;;;11.13;;
9106;SDS011;4589;48.690;8.952;2023-01-30T03:41:49;22.90;;;12.52;;
9106;SDS011;4589;48.690;8.952;2023-01-30T03:44:16;17.73;;;10.52;;
9106;SDS011;4589;48.690;8.952;2023-01-30T03:46:41;24.23;;;12.57;;
9106;SDS011;4589;48.690;8.952;2023-01-30T03:49:07;18.80;;;11.60;;
9106;SDS011;4589;48.690;8.952;2023-01-30T03:51:33;24.07;;;11.80;;
9106;SDS011;4589;48.690;8.952;2023-01-30T03:53:59;17.27;;;11.07;;
9106;SDS011;4589;48.690;8.952;2023-01-30T03:56:25;18.48;;;11.32;;
9106;SDS011;4589;48.690;8.952;2023-01-30T03:58:51;19.23;;;11.30;;
9106;SDS011;4589;48.690;8.952;2023-01-30T04:01:17;28.57;;;12.50;;
9106;SDS011;4589;48.690;8.952;2023-01-30T04:03:43;23.02;;;11.35;;
9106;SDS011;4589;48.690;8.952;2023-01-30T04:06:10;24.67;;;11.43;;
9106;SDS011;4589;48.690;8.952;2023-01-30T04:08:36;16.88;;;10.27;;
9106;SDS011;4589;48.690;8.952;2023-01-30T04:11:02;13.27;;;8.23;;
9106;SDS011;4589;48.690;8.952;2023-01-30T04:13:28;22.83;;;10.90;;
9106;SDS011;4589;48.690;8.952;2023-01-30T04:16:12;17.83;;;10.43;;
9106;SDS011;4589;48.690;8.952;2023-01-30T04:18:55;19.73;;;11.93;;
9106;SDS011;4589;48.690;8.952;2023-01-30T04:21:21;18.13;;;9.60;;
9106;SDS011;4589;48.690;8.952;2023-01-30T04:23:47;16.00;;;9.47;;
9106;SDS011;4589;48.690;8.952;2023-01-30T04:26:13;16.40;;;10.37;;
9106;SDS011;4589;48.690;8.952;2023-01-30T04:28:39;16.83;;;9.80;;
9106;SDS011;4589;48.690;8.952;2023-01-30T04:31:05;14.07;;;10.00;;
9106;SDS011;4589;48.690;8.952;2023-01-30T04:33:31;15.33;;;8.63;;
9106;SDS011;4589;48.690;8.952;2023-01-30T04:36:01;13.77;;;8.50;;
9106;SDS011;4589;48.690;8.952;2023-01-30T04:38:29;14.77;;;9.93;;
9106;SDS011;4589;48.690;8.952;2023-01-30T04:40:55;16.05;;;9.30;;
9106;SDS011;4589;48.690;8.952;2023-01-30T04:43:22;21.02;;;10.30;;
9106;SDS011;4589;48.690;8.952;2023-01-30T04:45:49;24.25;;;11.02;;
9106;SDS011;4589;48.690;8.952;2023-01-30T04:48:16;18.90;;;11.00;;
9106;SDS011;4589;48.690;8.952;2023-01-30T04:50:43;15.95;;;10.25;;
9106;SDS011;4589;48.690;8.952;2023-01-30T04:53:10;14.68;;;8.82;;
9106;SDS011;4589;48.690;8.952;2023-01-30T04:55:36;15.25;;;10.05;;
9106;SDS011;4589;48.690;8.952;2023-01-30T04:58:02;18.17;;;9.80;;
9106;SDS011;4589;48.690;8.952;2023-01-30T05:00:28;18.67;;;10.27;;
9106;SDS011;4589;48.690;8.952;2023-01-30T05:02:54;18.95;;;10.23;;
9106;SDS011;4589;48.690;8.952;2023-01-30T05:05:21;17.95;;;9.15;;
9106;SDS011;4589;48.690;8.952;2023-01-30T05:07:47;16.48;;;9.80;;
9106;SDS011;4589;48.690;8.952;2023-01-30T05:10:13;14.68;;;9.05;;
9106;SDS011;4589;48.690;8.952;2023-01-30T05:12:39;15.90;;;9.30;;
9106;SDS011;4589;48.690;8.952;2023-01-30T05:15:05;16.23;;;10.73;;
9106;SDS011;4589;48.690;8.952;2023-01-30T05:17:31;17.52;;;8.60;;
9106;SDS011;4589;48.690;8.952;2023-01-30T05:19:57;15.38;;;8.82;;
9106;SDS011;4589;48.690;8.952;2023-01-30T05:22:23;12.13;;;8.20;;
9106;SDS011;4589;48.690;8.952;2023-01-30T05:24:49;15.27;;;8.77;;
9106;SDS011;4589;48.690;8.952;2023-01-30T05:27:15;14.60;;;8.80;;
9106;SDS011;4589;48.690;8.952;2023-01-30T05:29:41;10.97;;;7.27;;
9106;SDS011;4589;48.690;8.952;2023-01-30T05:32:09;14.07;;;8.90;;
9106;SDS011;4589;48.690;8.952;2023-01-30T05:34:37;12.50;;;7.05;;
9106;SDS011;4589;48.690;8.952;2023-01-30T05:37:03;14.00;;;7.87;;
9106;SDS011;4589;48.690;8.952;2023-01-30T05:39:29;11.68;;;7.53;;
9106;SDS011;4589;48.690;8.952;2023-01-30T05:41:55;15.00;;;8.17;;
9106;SDS011;4589;48.690;8.952;2023-01-30T05:44:21;13.57;;;9.68;;
9106;SDS011;4589;48.690;8.952;2023-01-30T05:46:47;14.47;;;7.33;;
9106;SDS011;4589;48.690;8.952;2023-01-30T05:49:13;11.43;;;8.40;;
9106;SDS011;4589;48.690;8.952;2023-01-30T05:51:39;11.93;;;7.80;;
9106;SDS011;4589;48.690;8.952;2023-01-30T05:54:05;9.63;;;6.40;;
9106;SDS011;4589;48.690;8.952;2023-01-30T05:56:31;19.23;;;9.47;;
9106;SDS011;4589;48.690;8.952;2023-01-30T05:58:57;11.18;;;6.88;;
9106;SDS011;4589;48.690;8.952;2023-01-30T06:01:23;13.45;;;8.55;;
9106;SDS011;4589;48.690;8.952;2023-01-30T06:03:49;11.90;;;7.57;;
9106;SDS011;4589;48.690;8.952;2023-01-30T06:06:15;13.63;;;9.00;;
9106;SDS011;4589;48.690;8.952;2023-01-30T06:08:41;16.40;;;9.05;;
9106;SDS011;4589;48.690;8.952;2023-01-30T06:11:09;11.73;;;7.60;;
9106;SDS011;4589;48.690;8.952;2023-01-30T06:13:35;10.98;;;6.80;;
9106;SDS011;4589;48.690;8.952;2023-01-30T06:16:01;14.85;;;9.60;;
9106;SDS011;4589;48.690;8.952;2023-01-30T06:18:27;11.10;;;7.03;;
9106;SDS011;4589;48.690;8.952;2023-01-30T06:20:53;12.63;;;7.20;;
9106;SDS011;4589;48.690;8.952;2023-01-30T06:23:20;18.23;;;9.10;;
9106;SDS011;4589;48.690;8.952;2023-01-30T06:25:47;11.60;;;7.05;;
9106;SDS011;4589;48.690;8.952;2023-01-30T06:28:14;14.95;;;7.75;;
9106;SDS011;4589;48.690;8.952;2023-01-30T06:30:41;13.90;;;8.38;;
9106;SDS011;4589;48.690;8.952;2023-01-30T06:33:07;10.85;;;7.30;;
9106;SDS011;4589;48.690;8.952;2023-01-30T06:35:33;12.23;;;8.65;;
9106;SDS011;4589;48.690;8.952;2023-01-30T06:37:59;14.43;;;9.05;;
9106;SDS011;4589;48.690;8.952;2023-01-30T06:40:25;13.87;;;7.20;;
9106;SDS011;4589;48.690;8.952;2023-01-30T06:42:51;17.57;;;8.30;;
9106;SDS011;4589;48.690;8.952;2023-01-30T06:45:17;12.17;;;8.10;;
9106;SDS011;4589;48.690;8.952;2023-01-30T06:47:47;13.07;;;7.57;;
9106;SDS011;4589;48.690;8.952;2023-01-30T06:50:14;11.95;;;7.10;;
9106;SDS011;4589;48.690;8.952;2023-01-30T06:52:47;9.20;;;6.43;;
9106;SDS011;4589;48.690;8.952;2023-01-30T06:55:14;10.20;;;6.85;;
9106;SDS011;4589;48.690;8.952;2023-01-30T06:57:41;12.90;;;7.75;;
9106;SDS011;4589;48.690;8.952;2023-01-30T07:00:10;14.27;;;8.85;;
9106;SDS011;4589;48.690;8.952;2023-01-30T07:02:36;9.38;;;6.13;;
9106;SDS011;4589;48.690;8.952;2023-01-30T07:05:03;9.43;;;6.65;;
9106;SDS011;4589;48.690;8.952;2023-01-30T07:07:30;9.77;;;6.35;;
9106;SDS011;4589;48.690;8.952;2023-01-30T07:09:56;10.80;;;6.18;;
9106;SDS011;4589;48.690;8.952;2023-01-30T07:12:23;12.05;;;7.07;;
9106;SDS011;4589;48.690;8.952;2023-01-30T07:14:49;10.27;;;6.95;;
9106;SDS011;4589;48.690;8.952;2023-01-30T07:17:15;13.68;;;7.70;;
9106;SDS011;4589;48.690;8.952;2023-01-30T07:19:41;13.23;;;6.65;;
9106;SDS011;4589;48.690;8.952;2023-01-30T07:22:08;8.02;;;5.95;;
9106;SDS011;4589;48.690;8.952;2023-01-30T07:24:34;13.00;;;8.63;;
9106;SDS011;4589;48.690;8.952;2023-01-30T07:27:00;10.33;;;6.87;;
9106;SDS011;4589;48.690;8.952;2023-01-30T07:29:25;11.53;;;7.00;;
9106;SDS011;4589;48.690;8.952;2023-01-30T07:31:51;12.43;;;7.60;;
9106;SDS011;4589;48.690;8.952;2023-01-30T07:34:17;10.60;;;6.83;;
9106;SDS011;4589;48.690;8.952;2023-01-30T07:36:43;11.30;;;7.57;;
9106;SDS011;4589;48.690;8.952;2023-01-30T07:39:09;13.37;;;7.50;;
9106;SDS011;4589;48.690;8.952;2023-01-30T07:41:35;13.38;;;6.85;;
9106;SDS011;4589;48.690;8.952;2023-01-30T07:44:01;14.23;;;7.43;;
9106;SDS011;4589;48.690;8.952;2023-01-30T07:46:27;10.27;;;7.35;;
9106;SDS011;4589;48.690;8.952;2023-01-30T07:49:08;15.40;;;7.93;;
9106;SDS011;4589;48.690;8.952;2023-01-30T07:51:34;10.32;;;6.25;;
9106;SDS011;4589;48.690;8.952;2023-01-30T07:54:00;14.33;;;8.00;;
9106;SDS011;4589;48.690;8.952;2023-01-30T07:56:27;11.18;;;7.05;;
9106;SDS011;4589;48.690;8.952;2023-01-30T07:58:54;13.03;;;7.87;;
9106;SDS011;4589;48.690;8.952;2023-01-30T08:01:20;12.35;;;7.40;;
9106;SDS011;4589;48.690;8.952;2023-01-30T08:03:46;8.87;;;6.70;;
9106;SDS011;4589;48.690;8.952;2023-01-30T08:06:13;10.13;;;7.90;;
9106;SDS011;4589;48.690;8.952;2023-01-30T08:08:39;11.30;;;6.90;;
9106;SDS011;4589;48.690;8.952;2023-01-30T08:11:05;9.90;;;7.53;;
9106;SDS011;4589;48.690;8.952;2023-01-30T08:13:31;8.82;;;7.00;;
9106;SDS011;4589;48.690;8.952;2023-01-30T08:16:01;11.07;;;6.53;;
9106;SDS011;4589;48.690;8.952;2023-01-30T08:18:28;9.60;;;6.35;;
9106;SDS011;4589;48.690;8.952;2023-01-30T08:21:00;8.38;;;6.03;;
9106;SDS011;4589;48.690;8.952;2023-01-30T08:23:28;16.30;;;8.20;;
9106;SDS011;4589;48.690;8.952;2023-01-30T08:25:58;7.80;;;6.10;;
9106;SDS011;4589;48.690;8.952;2023-01-30T08:28:25;9.52;;;6.82;;
9106;SDS011;4589;48.690;8.952;2023-01-30T08:30:51;11.43;;;6.47;;
9106;SDS011;4589;48.690;8.952;2023-01-30T08:33:21;10.43;;;7.10;;
9106;SDS011;4589;48.690;8.952;2023-01-30T08:35:47;12.32;;;7.80;;
9106;SDS011;4589;48.690;8.952;2023-01-30T08:38:13;12.53;;;6.90;;
9106;SDS011;4589;48.690;8.952;2023-01-30T08:40:39;12.10;;;6.47;;
9106;SDS011;4589;48.690;8.952;2023-01-30T08:43:05;9.80;;;6.38;;
9106;SDS011;4589;48.690;8.952;2023-01-30T08:45:31;9.57;;;6.80;;
9106;SDS011;4589;48.690;8.952;2023-01-30T08:47:58;12.68;;;6.80;;
9106;SDS011;4589;48.690;8.952;2023-01-30T08:50:24;9.88;;;6.22;;
9106;SDS011;4589;48.690;8.952;2023-01-30T08:52:50;12.07;;;6.30;;
9106;SDS011;4589;48.690;8.952;2023-01-30T08:55:16;12.50;;;6.47;;
9106;SDS011;4589;48.690;8.952;2023-01-30T08:57:42;12.80;;;7.70;;
9106;SDS011;4589;48.690;8.952;2023-01-30T09:00:09;8.80;;;6.30;;
9106;SDS011;4589;48.690;8.952;2023-01-30T09:02:35;11.10;;;7.27;;
9106;SDS011;4589;48.690;8.952;2023-01-30T09:05:01;10.10;;;6.50;;
9106;SDS011;4589;48.690;8.952;2023-01-30T09:07:28;6.43;;;4.97;;
9106;SDS011;4589;48.690;8.952;2023-01-30T09:09:54;9.30;;;6.50;;
9106;SDS011;4589;48.690;8.952;2023-01-30T09:12:20;8.23;;;6.13;;
9106;SDS011;4589;48.690;8.952;2023-01-30T09:14:46;8.37;;;5.70;;
9106;SDS011;4589;48.690;8.952;2023-01-30T09:17:12;8.17;;;5.93;;
9106;SDS011;4589;48.690;8.952;2023-01-30T09:19:38;7.70;;;5.17;;
9106;SDS011;4589;48.690;8.952;2023-01-30T09:22:04;8.70;;;5.40;;
9106;SDS011;4589;48.690;8.952;2023-01-30T09:24:31;6.07;;;5.40;;
9106;SDS011;4589;48.690;8.952;2023-01-30T09:26:57;8.10;;;5.40;;
9106;SDS011;4589;48.690;8.952;2023-01-30T09:29:27;6.90;;;5.30;;
9106;SDS011;4589;48.690;8.952;2023-01-30T09:31:54;8.47;;;5.40;;
9106;SDS011;4589;48.690;8.952;2023-01-30T09:34:23;7.53;;;5.30;;
9106;SDS011;4589;48.690;8.952;2023-01-30T09:36:53;6.93;;;5.13;;
9106;SDS011;4589;48.690;8.952;2023-01-30T09:39:19;6.40;;;4.63;;
9106;SDS011;4589;48.690;8.952;2023-01-30T09:49:32;9.50;;;5.20;;
9106;SDS011;4589;48.690;8.952;2023-01-30T09:52:15;8.00;;;5.00;;
9106;SDS011;4589;48.690;8.952;2023-01-30T09:54:58;6.40;;;4.70;;
9106;SDS011;4589;48.690;8.952;2023-01-30T09:57:25;8.40;;;5.30;;
9106;SDS011;4589;48.690;8.952;2023-01-30T10:02:57;5.30;;;4.30;;
9106;SDS011;4589;48.690;8.952;2023-01-30T10:05:48;5.37;;;3.50;;
9106;SDS011;4589;48.690;8.952;2023-01-30T10:16:36;5.80;;;4.00;;
9106;SDS011;4589;48.690;8.952;2023-01-30T10:26:59;4.37;;;3.00;;
9106;SDS011;4589;48.690;8.952;2023-01-30T10:29:32;3.17;;;2.60;;
9106;SDS011;4589;48.690;8.952;2023-01-30T10:32:00;2.97;;;2.47;;
9106;SDS011;4589;48.690;8.952;2023-01-30T10:34:28;3.10;;;2.67;;
9106;SDS011;4589;48.690;8.952;2023-01-30T10:37:07;2.87;;;2.50;;
9106;SDS011;4589;48.690;8.952;2023-01-30T10:42:14;3.00;;;2.60;;
9106;SDS011;4589;48.690;8.952;2023-01-30T10:44:44;3.40;;;2.90;;
9106;SDS011;4589;48.690;8.952;2023-01-30T10:50:01;3.53;;;2.83;;
9106;SDS011;4589;48.690;8.952;2023-01-30T10:53:02;2.80;;;2.40;;
9106;SDS011;4589;48.690;8.952;2023-01-30T10:55:49;2.30;;;2.10;;
9106;SDS011;4589;48.690;8.952;2023-01-30T11:04:22;2.43;;;2.20;;
9106;SDS011;4589;48.690;8.952;2023-01-30T11:06:56;3.87;;;3.20;;
9106;SDS011;4589;48.690;8.952;2023-01-30T11:09:22;5.03;;;3.40;;
9106;SDS011;4589;48.690;8.952;2023-01-30T11:11:52;4.70;;;4.20;;
9106;SDS011;4589;48.690;8.952;2023-01-30T11:14:19;8.20;;;5.00;;
9106;SDS011;4589;48.690;8.952;2023-01-30T11:16:46;6.87;;;4.67;;
9106;SDS011;4589;48.690;8.952;2023-01-30T11:19:13;5.13;;;4.10;;
9106;SDS011;4589;48.690;8.952;2023-01-30T11:21:40;6.43;;;4.40;;
9106;SDS011;4589;48.690;8.952;2023-01-30T11:24:15;7.88;;;5.03;;
9106;SDS011;4589;48.690;8.952;2023-01-30T11:26:43;7.60;;;4.90;;
9106;SDS011;4589;48.690;8.952;2023-01-30T11:29:13;9.10;;;6.03;;
9106;SDS011;4589;48.690;8.952;2023-01-30T11:32:00;5.80;;;4.30;;
9106;SDS011;4589;48.690;8.952;2023-01-30T11:34:27;5.50;;;3.97;;
9106;SDS011;4589;48.690;8.952;2023-01-30T11:36:53;8.77;;;6.10;;
9106;SDS011;4589;48.690;8.952;2023-01-30T11:42:47;8.47;;;5.20;;
9106;SDS011;4589;48.690;8.952;2023-01-30T11:45:13;9.57;;;5.88;;
9106;SDS011;4589;48.690;8.952;2023-01-30T11:47:50;5.73;;;3.50;;
9106;SDS011;4589;48.690;8.952;2023-01-30T11:50:18;7.97;;;4.90;;
9106;SDS011;4589;48.690;8.952;2023-01-30T11:52:44;6.37;;;4.27;;
9106;SDS011;4589;48.690;8.952;2023-01-30T11:55:15;6.72;;;4.50;;
9106;SDS011;4589;48.690;8.952;2023-01-30T11:57:43;7.65;;;5.00;;
9106;SDS011;4589;48.690;8.952;2023-01-30T12:00:17;6.33;;;4.50;;
9106;SDS011;4589;48.690;8.952;2023-01-30T12:02:44;5.77;;;4.03;;
9106;SDS011;4589;48.690;8.952;2023-01-30T12:05:29;5.57;;;4.18;;
9106;SDS011;4589;48.690;8.952;2023-01-30T12:08:31;3.90;;;2.70;;
9106;SDS011;4589;48.690;8.952;2023-01-30T12:10:54;3.08;;;2.78;;
9106;SDS011;4589;48.690;8.952;2023-01-30T12:13:24;3.20;;;2.60;;
9106;SDS011;4589;48.690;8.952;2023-01-30T12:15:54;3.80;;;3.03;;
9106;SDS011;4589;48.690;8.952;2023-01-30T12:18:29;2.90;;;2.60;;
9106;SDS011;4589;48.690;8.952;2023-01-30T12:21:11;5.68;;;3.38;;
9106;SDS011;4589;48.690;8.952;2023-01-30T12:23:58;11.50;;;3.25;;
9106;SDS011;4589;48.690;8.952;2023-01-30T12:26:52;4.07;;;2.83;;
9106;SDS011;4589;48.690;8.952;2023-01-30T12:29:30;6.30;;;3.97;;
9106;SDS011;4589;48.690;8.952;2023-01-30T12:34:29;6.45;;;4.00;;
9106;SDS011;4589;48.690;8.952;2023-01-30T12:45:31;5.77;;;3.43;;
9106;SDS011;4589;48.690;8.952;2023-01-30T12:53:22;3.87;;;2.67;;
9106;SDS011;4589;48.690;8.952;2023-01-30T13:07:21;4.10;;;2.77;;
9106;SDS011;4589;48.690;8.952;2023-01-30T13:10:01;3.37;;;2.70;;
9106;SDS011;4589;48.690;8.952;2023-01-30T13:15:30;3.30;;;2.30;;
9106;SDS011;4589;48.690;8.952;2023-01-30T13:17:59;4.03;;;2.93;;
9106;SDS011;4589;48.690;8.952;2023-01-30T13:20:42;5.17;;;3.53;;
9106;SDS011;4589;48.690;8.952;2023-01-30T13:32:10;3.83;;;2.80;;
9106;SDS011;4589;48.690;8.952;2023-01-30T13:34:45;3.10;;;2.80;;
9106;SDS011;4589;48.690;8.952;2023-01-30T13:37:17;3.43;;;2.93;;
9106;SDS011;4589;48.690;8.952;2023-01-30T13:42:51;2.90;;;2.63;;
9106;SDS011;4589;48.690;8.952;2023-01-30T13:44:58;2.93;;;2.30;;
9106;SDS011;4589;48.690;8.952;2023-01-30T13:47:38;3.40;;;2.57;;
9106;SDS011;4589;48.690;8.952;2023-01-30T13:50:29;4.27;;;2.97;;
9106;SDS011;4589;48.690;8.952;2023-01-30T13:53:07;10.40;;;6.63;;
9106;SDS011;4589;48.690;8.952;2023-01-30T13:55:56;8.07;;;4.70;;
9106;SDS011;4589;48.690;8.952;2023-01-30T14:01:21;5.93;;;4.17;;
9106;SDS011;4589;48.690;8.952;2023-01-30T14:03:48;4.40;;;3.60;;
9106;SDS011;4589;48.690;8.952;2023-01-30T14:06:25;3.97;;;3.50;;
9106;SDS011;4589;48.690;8.952;2023-01-30T14:08:57;6.67;;;4.20;;
9106;SDS011;4589;48.690;8.952;2023-01-30T14:11:36;4.73;;;3.83;;
9106;SDS011;4589;48.690;8.952;2023-01-30T14:14:21;5.83;;;3.87;;
9106;SDS011;4589;48.690;8.952;2023-01-30T14:22:14;4.43;;;4.00;;
9106;SDS011;4589;48.690;8.952;2023-01-30T14:24:41;5.33;;;3.40;;
9106;SDS011;4589;48.690;8.952;2023-01-30T14:27:40;3.40;;;3.00;;
9106;SDS011;4589;48.690;8.952;2023-01-30T14:29:58;5.30;;;3.93;;
9106;SDS011;4589;48.690;8.952;2023-01-30T14:32:32;14.53;;;5.50;;
9106;SDS011;4589;48.690;8.952;2023-01-30T14:35:18;8.00;;;4.40;;
9106;SDS011;4589;48.690;8.952;2023-01-30T14:37:46;4.43;;;4.00;;
9106;SDS011;4589;48.690;8.952;2023-01-30T14:48:31;3.97;;;3.23;;
9106;SDS011;4589;48.690;8.952;2023-01-30T15:04:30;3.33;;;2.67;;
9106;SDS011;4589;48.690;8.952;2023-01-30T15:09:57;3.40;;;3.10;;
9106;SDS011;4589;48.690;8.952;2023-01-30T15:12:41;6.07;;;4.17;;
9106;SDS011;4589;48.690;8.952;2023-01-30T15:15:40;7.50;;;4.27;;
9106;SDS011;4589;48.690;8.952;2023-01-30T15:18:07;5.75;;;4.10;;
9106;SDS011;4589;48.690;8.952;2023-01-30T15:26:21;5.13;;;3.88;;
9106;SDS011;4589;48.690;8.952;2023-01-30T15:31:35;5.55;;;3.92;;
9106;SDS011;4589;48.690;8.952;2023-01-30T15:34:01;4.90;;;3.93;;
9106;SDS011;4589;48.690;8.952;2023-01-30T15:36:31;4.80;;;3.83;;
9106;SDS011;4589;48.690;8.952;2023-01-30T15:39:02;6.87;;;4.60;;
9106;SDS011;4589;48.690;8.952;2023-01-30T15:41:42;5.03;;;3.93;;
9106;SDS011;4589;48.690;8.952;2023-01-30T15:46:59;10.53;;;4.60;;
9106;SDS011;4589;48.690;8.952;2023-01-30T15:49:39;7.80;;;4.27;;
9106;SDS011;4589;48.690;8.952;2023-01-30T15:52:23;4.95;;;3.63;;
9106;SDS011;4589;48.690;8.952;2023-01-30T15:54:52;7.50;;;5.67;;
9106;SDS011;4589;48.690;8.952;2023-01-30T15:57:24;3.97;;;3.33;;
9106;SDS011;4589;48.690;8.952;2023-01-30T15:59:53;5.20;;;3.70;;
9106;SDS011;4589;48.690;8.952;2023-01-30T16:02:26;6.37;;;4.03;;
9106;SDS011;4589;48.690;8.952;2023-01-30T16:05:03;8.50;;;3.70;;
9106;SDS011;4589;48.690;8.952;2023-01-30T16:07:33;9.83;;;4.03;;
9106;SDS011;4589;48.690;8.952;2023-01-30T16:09:59;4.67;;;3.83;;
9106;SDS011;4589;48.690;8.952;2023-01-30T16:12:26;6.40;;;4.27;;
9106;SDS011;4589;48.690;8.952;2023-01-30T16:14:53;13.80;;;4.47;;
9106;SDS011;4589;48.690;8.952;2023-01-30T16:17:25;6.73;;;4.50;;
9106;SDS011;4589;48.690;8.952;2023-01-30T16:19:53;6.53;;;4.80;;
9106;SDS011;4589;48.690;8.952;2023-01-30T16:22:20;7.82;;;4.22;;
9106;SDS011;4589;48.690;8.952;2023-01-30T16:24:47;8.90;;;4.83;;
9106;SDS011;4589;48.690;8.952;2023-01-30T16:27:18;7.93;;;4.67;;
9106;SDS011;4589;48.690;8.952;2023-01-30T16:29:50;5.10;;;3.90;;
9106;SDS011;4589;48.690;8.952;2023-01-30T16:32:23;6.83;;;4.20;;
9106;SDS011;4589;48.690;8.952;2023-01-30T16:34:49;4.28;;;3.53;;
9106;SDS011;4589;48.690;8.952;2023-01-30T16:39:44;9.82;;;5.60;;
9106;SDS011;4589;48.690;8.952;2023-01-30T16:42:19;7.45;;;5.35;;
9106;SDS011;4589;48.690;8.952;2023-01-30T16:44:50;6.93;;;4.85;;
9106;SDS011;4589;48.690;8.952;2023-01-30T16:47:29;8.90;;;4.28;;
9106;SDS011;4589;48.690;8.952;2023-01-30T16:49:55;11.10;;;5.15;;
9106;SDS011;4589;48.690;8.952;2023-01-30T16:52:22;6.93;;;4.40;;
9106;SDS011;4589;48.690;8.952;2023-01-30T16:54:52;9.23;;;5.30;;
9106;SDS011;4589;48.690;8.952;2023-01-30T16:57:41;8.55;;;4.60;;
9106;SDS011;4589;48.690;8.952;2023-01-30T17:00:06;5.75;;;4.75;;
9106;SDS011;4589;48.690;8.952;2023-01-30T17:02:53;6.72;;;4.97;;
9106;SDS011;4589;48.690;8.952;2023-01-30T17:07:47;9.15;;;5.55;;
9106;SDS011;4589;48.690;8.952;2023-01-30T17:12:52;8.60;;;4.85;;
9106;SDS011;4589;48.690;8.952;2023-01-30T17:17:44;7.93;;;4.30;;
9106;SDS011;4589;48.690;8.952;2023-01-30T17:20:11;9.33;;;4.80;;
9106;SDS011;4589;48.690;8.952;2023-01-30T17:22:38;5.75;;;4.63;;
9106;SDS011;4589;48.690;8.952;2023-01-30T17:25:05;8.32;;;4.85;;
9106;SDS011;4589;48.690;8.952;2023-01-30T17:27:32;6.28;;;4.78;;
9106;SDS011;4589;48.690;8.952;2023-01-30T17:29:58;6.83;;;5.10;;
9106;SDS011;4589;48.690;8.952;2023-01-30T17:32:24;8.63;;;5.80;;
9106;SDS011;4589;48.690;8.952;2023-01-30T17:34:50;7.07;;;5.03;;
9106;SDS011;4589;48.690;8.952;2023-01-30T17:37:17;8.20;;;6.00;;
9106;SDS011;4589;48.690;8.952;2023-01-30T17:39:47;11.18;;;5.40;;
9106;SDS011;4589;48.690;8.952;2023-01-30T17:42:14;9.98;;;6.00;;
9106;SDS011;4589;48.690;8.952;2023-01-30T17:44:42;8.57;;;5.78;;
9106;SDS011;4589;48.690;8.952;2023-01-30T17:47:09;10.65;;;5.53;;
9106;SDS011;4589;48.690;8.952;2023-01-30T17:49:35;8.85;;;5.60;;
9106;SDS011;4589;48.690;8.952;2023-01-30T17:52:01;7.40;;;6.33;;
9106;SDS011;4589;48.690;8.952;2023-01-30T17:54:27;7.90;;;4.80;;